Flight Track Log - Related Links

Times and Time Zones

All times are in EDT time to prevent confusion due to time zone crossing. See the N900GT flight status page for this flight to view local times or setup timezone preferences in your user account.

Time Position Orientation Groundspeed Altitude Reporting Facility
EDT Latitude Longitude Course Direction KTS MPH feet Rate Location/Type
Mon 02:47:41 PM 34.0253 -96.3914 321° Northwest 157 181 6,100  Level Kansas City Center
Mon 02:48:33 PM 34.0775 -96.4056 347° North 252 290 7,800 1,768 Climbing Fort Worth Center
Mon 02:49:33 PM 34.1194 -96.4300 334° Northwest 219 252 9,400 1,800 Climbing Fort Worth Center
Mon 02:50:33 PM 34.1739 -96.4569 338° Northwest 207 238 11,400 1,800 Climbing Fort Worth Center
Mon 02:51:33 PM 34.2222 -96.4867 333° Northwest 195 224 13,000 1,550 Climbing Fort Worth Center
Mon 02:52:33 PM 34.2725 -96.5164 334° Northwest 195 224 14,500 1,450 Climbing Fort Worth Center
Mon 02:53:00 PM 34.2609 -96.5717 321° Northwest  Level Estimated
Mon 02:53:33 PM 34.3228 -96.5458 334° Northwest 200 230 15,900  Level Fort Worth Center
Mon 02:54:33 PM 34.3833 -96.5806 335° Northwest 213 245 16,000 50 Climbing Fort Worth Center
Mon 02:55:33 PM 34.4483 -96.6203 333° Northwest 236 272 16,000  Level Fort Worth Center
Mon 02:56:33 PM 34.5153 -96.6600 334° Northwest 256 295 16,000  Level Fort Worth Center
Mon 02:57:33 PM 34.5844 -96.6997 335° Northwest 263 303 16,000  Level Fort Worth Center
Mon 02:58:33 PM 34.6514 -96.7419 333° Northwest 263 303 16,000  Level Fort Worth Center
Mon 02:59:33 PM 34.7206 -96.7794 336° Northwest 263 303 16,000  Level Fort Worth Center
Mon 03:00:33 PM 34.7894 -96.8219 333° Northwest 263 303 16,000  Level Fort Worth Center
Mon 03:01:33 PM 34.8564 -96.8619 334° Northwest 263 303 16,000  Level Fort Worth Center
Mon 03:02:33 PM 34.9256 -96.9019 335° Northwest 263 303 16,000  Level Fort Worth Center
Mon 03:03:33 PM 34.9925 -96.9422 334° Northwest 263 303 16,000  Level Fort Worth Center
Mon 03:04:33 PM 35.0592 -96.9822 334° Northwest 263 303 16,000  Level Fort Worth Center
Mon 03:05:33 PM 35.1261 -97.0200 335° Northwest 263 303 16,000  Level Fort Worth Center
Mon 03:07:19 PM 35.2433 -97.0908 334° Northwest 270 311 16,000  Level Kansas City Center
Mon 03:08:21 PM 35.3106 -97.1311 334° Northwest 270 311 16,000  Level Kansas City Center
Mon 03:09:23 PM 35.3900 -97.1778 334° Northwest 268 308 16,000  Level Kansas City Center
Mon 03:10:25 PM 35.4564 -97.2183 334° Northwest 269 310 16,000 -677 Level Kansas City Center
Mon 03:11:27 PM 35.5272 -97.2614 334° Northwest 284 327 14,600 -1,452 Descending Kansas City Center
Mon 03:12:29 PM 35.6022 -97.3078 333° Northwest 303 349 13,000 -1,645 Descending Kansas City Center
Mon 03:13:31 PM 35.6878 -97.3606 333° Northwest 293 337 11,200 -1,597 Descending Kansas City Center
Mon 03:14:33 PM 35.7567 -97.4031 333° Northwest 283 326 9,700 -1,403 Descending Kansas City Center
Mon 03:15:35 PM 35.8239 -97.4447 333° Northwest 275 316 8,300 -1,392 Descending Kansas City Center
Mon 03:16:38 PM 35.8917 -97.4858 334° Northwest 271 312 6,800 -1,104 Descending Kansas City Center
Mon 03:17:40 PM 35.9561 -97.5258 333° Northwest 264 304 6,000 -387 Descending Kansas City Center
Mon 03:18:42 PM 36.0147 -97.5631 333° Northwest 246 283 6,000  Level Kansas City Center
Mon 03:19:44 PM 36.0864 -97.6067 334° Northwest 240 276 6,000 -92 Level Kansas City Center
Mon 03:19:47 PM 36.0919 -97.6069 358° North 240 276 5,900 -581 Descending Kansas City Center
Mon 03:20:46 PM 36.1553 -97.6008 North 251 289 5,400 -600 Descending Kansas City Center
Mon 03:20:47 PM 36.1586 -97.6019 345° North 246 283 5,300 -871 Descending Kansas City Center
Mon 03:21:48 PM 36.2031 -97.6358 328° Northwest 211 243 4,500 -689 Descending Kansas City Center
Mon 03:22:49 PM 36.2453 -97.6700 327° Northwest 201 231 3,900 -484 Descending Kansas City Center
Mon 03:22:50 PM 36.2442 -97.6664 111° Southeast 211 243 4,000  Climbing Kansas City Center
Mon 03:23:50 PM 36.2997 -97.6975 336° Northwest 198 228 3,900  Descending Kansas City Center
Mon 03:23:52 PM 36.2947 -97.6917 137° Southeast 198 228 4,000  Climbing Kansas City Center
Mon 03:24:51 PM 36.3578 -97.6911 360° North 206 237 3,900  Descending Kansas City Center
Mon 03:24:54 PM 36.3517 -97.6889 164° South 205 236 4,000 -92 Climbing Kansas City Center
Mon 03:25:56 PM 36.4192 -97.6869 North 204 235 3,800 -581 Descending Kansas City Center
Mon 03:26:58 PM 36.4319 -97.7547 283° West 202 232 2,800 -974 Descending Kansas City Center
Mon 03:27:53 PM 36.4175 -97.7908 244° Southwest 117 135 1,900 -194 Descending Kansas City Center
Mon 03:28:00 PM 36.4300 -97.8103 309° West 196 226 2,600 -492 Climbing Kansas City Center
Mon 03:28:54 PM 36.3947 -97.7933 159° South 90 104 1,400 -1,333 Descending Kansas City Center

Login

Don't have an account? Register now (free) for customized features, flight alerts, and more!